Terminal Aerodrome Forecast
Issued by NWS Sioux Falls, SD

Home | Current Version | Previous Version | Graphics & Text | Print | Product List | Glossary On
Versions: 1 2 3 4 5 6 7 8 9 10 11 12 13 14 15
000
FTUS43 KFSD 221100
TAFHON
TAF
KHON 221120Z 2212/2312 15008KT P6SM SKC
     FM221500 15011KT P6SM SCT200
     FM221900 14014G21KT P6SM SCT100
     FM230200 13016G24KT P6SM OVC100
     FM230500 14020G28KT P6SM OVC100
      TEMPO 2308/2312 -SHRA BKN070=

USA.gov is the U.S. government's official web portal to all federal, state and local government web resources and services.